»·PEaware :: N723DW L52-L88

N723DW :: L52-L88

FLIGHT INFORMATION

Flight Status: Arrived
Operator: Privately registered:
United States
More flights under this callsign
Pilot: Danny W. (23158)
Aircraft: CESSNA 172 SKYHAWK
(C172)
More flights by this aircraft type
Origin: L52 Oceano Co
United States
Destination: L88 New Cuyama
United States
More flights between these airports :: More routes between these airports
Route:
File this flight plan on PilotEdge
Remarks:
Altitude:
(Current/Filed)
5,500ft
Speed:
(Current/Filed)
120kts
Departed: 30-Jan-19 11:24 AM
Arrived: 30-Jan-19 11:53 AM
Distance/Time
Traveled:
47nm/0:29
Distance/Time
To Go:
Arrived

Flight Plot

Page will automatically refresh every two minutes.


Map Options




Map Legend


Flown Route
Filed Route
Departure Airport
Arrival Airport
Navaid (VOR, NDB)
Fix

Horizontal Profiles

Position Reports

Time Latitude Longitude Heading Altitude Ground
Speed
30-Jan-19 11:12 35.103382 -120.624532 214 17ft 0kts
30-Jan-19 11:13 35.103382 -120.624532 214 17ft 0kts
30-Jan-19 11:14 35.103382 -120.624532 214 17ft 0kts
30-Jan-19 11:15 35.103382 -120.624532 214 17ft 0kts
30-Jan-19 11:16 35.103381 -120.624532 214 17ft 0kts
30-Jan-19 11:17 35.103378 -120.624534 214 17ft 0kts
30-Jan-19 11:18 35.103375 -120.624537 214 17ft 0kts
30-Jan-19 11:19 35.103372 -120.624540 214 17ft 0kts
30-Jan-19 11:20 35.102157 -120.622561 121 17ft 9kts
30-Jan-19 11:21 35.100716 -120.621765 121 17ft 17kts
30-Jan-19 11:22 35.099629 -120.619461 30 17ft 0kts
30-Jan-19 11:23 35.102032 -120.623338 301 40ft 75kts
30-Jan-19 11:24 35.102026 -120.638146 129 1062ft 93kts
30-Jan-19 11:25 35.091057 -120.613148 106 2212ft 89kts
30-Jan-19 11:27 35.092175 -120.581618 75 3234ft 82kts
30-Jan-19 11:28 35.095181 -120.550166 84 4148ft 83kts
30-Jan-19 11:29 35.095552 -120.521764 87 5042ft 86kts
30-Jan-19 11:30 35.091163 -120.492099 97 5865ft 90kts
30-Jan-19 11:31 35.080349 -120.460785 114 6560ft 95kts
30-Jan-19 11:32 35.069170 -120.429143 101 7104ft 107kts
30-Jan-19 11:33 35.063761 -120.398682 99 7517ft 112kts
30-Jan-19 11:34 35.056749 -120.357807 99 7542ft 126kts
30-Jan-19 11:35 35.049474 -120.315269 99 7544ft 128kts
30-Jan-19 11:36 35.042150 -120.272524 99 7544ft 128kts
30-Jan-19 11:37 35.034798 -120.229689 99 7544ft 129kts
30-Jan-19 11:38 35.027321 -120.186234 99 7502ft 131kts
30-Jan-19 11:39 35.019895 -120.143168 99 7498ft 129kts
30-Jan-19 11:40 35.012564 -120.100730 99 7498ft 130kts
30-Jan-19 11:41 35.006269 -120.064379 99 7498ft 132kts
30-Jan-19 11:42 34.998618 -120.020310 99 7492ft 131kts
30-Jan-19 11:43 34.991135 -119.977289 100 7324ft 127kts
30-Jan-19 11:43 34.984957 -119.941861 100 6992ft 128kts
30-Jan-19 11:44 34.977372 -119.898414 100 6601ft 131kts
30-Jan-19 11:46 34.968542 -119.848023 100 5869ft 124kts
30-Jan-19 11:47 34.961814 -119.807796 95 5016ft 121kts
30-Jan-19 11:48 34.959173 -119.764821 94 4051ft 128kts
30-Jan-19 11:48 34.957190 -119.729863 96 3108ft 117kts
30-Jan-19 11:49 34.948757 -119.695973 110 3010ft 103kts
30-Jan-19 11:50 34.940241 -119.664127 152 2904ft 88kts
30-Jan-19 11:52 34.940368 -119.686609 295 2206ft 46kts
30-Jan-19 11:52 34.943809 -119.690757 27 2206ft 8kts
30-Jan-19 11:53 34.943871 -119.690720 26 2206ft 0kts
30-Jan-19 11:54 34.943873 -119.690718 26 2206ft 0kts
30-Jan-19 11:55 34.943876 -119.690717 26 2206ft 0kts
30-Jan-19 11:56 34.943878 -119.690716 26 2206ft 0kts
30-Jan-19 11:57 34.943880 -119.690714 26 2206ft 0kts
30-Jan-19 11:58 34.943883 -119.690713 26 2206ft 0kts
30-Jan-19 11:59 34.943885 -119.690711 26 2206ft 0kts
30-Jan-19 12:00 34.943886 -119.690711 26 2206ft 0kts
30-Jan-19 12:01 34.943886 -119.690711 26 2206ft 0kts
30-Jan-19 12:02 34.943886 -119.690711 26 2206ft 0kts
30-Jan-19 12:03 34.943886 -119.690711 26 2206ft 0kts
30-Jan-19 12:04 34.943886 -119.690711 26 2206ft 0kts
30-Jan-19 12:05 34.943886 -119.690711 26 2206ft 0kts
30-Jan-19 12:06 34.943886 -119.690711 26 2206ft 0kts

Navigation Log

Ident Type
Flight plan parsing failed, navigation log unavailable